Time;durP1;ratioP1;P1;durP2;ratioP2;P2;SDS_P1;SDS_P2;PMS_P1;PMS_P2;Temp;Humidity;BMP_temperature;BMP_pressure;BME280_temperature;BME280_humidity;BME280_pressure;Samples;Min_cycle;Max_cycle;Signal;HPM_P1;HPM_P2
2022/09/11 00:00:08;;;;;;;17.35;9.05;;;;;;;14.21;93.55;100559.38;2071947;28;20117;-72
2022/09/11 00:01:15;;;;;;;16.80;8.40;;;;;;;14.22;93.31;100566.38;2065003;28;20038;-72
2022/09/11 00:02:23;;;;;;;18.83;8.57;;;;;;;14.23;93.46;100568.00;2071453;28;20319;-72
2022/09/11 00:03:32;;;;;;;16.35;8.07;;;;;;;14.23;93.43;100566.09;2079953;28;20053;-71
2022/09/11 00:04:37;;;;;;;14.75;8.15;;;;;;;14.25;93.35;100571.19;2071885;28;20041;-72
2022/09/11 00:05:40;;;;;;;14.30;8.18;;;;;;;14.26;93.35;100572.81;2064339;28;20053;-72
2022/09/11 00:06:49;;;;;;;14.65;7.90;;;;;;;14.24;93.69;100564.19;2072966;28;20053;-71
2022/09/11 00:07:55;;;;;;;17.10;7.65;;;;;;;14.26;93.73;100564.69;2080136;28;20037;-71
2022/09/11 00:09:05;;;;;;;14.70;7.63;;;;;;;14.26;93.44;100551.97;2080369;28;20055;-71
2022/09/11 00:10:11;;;;;;;16.08;7.60;;;;;;;14.26;93.71;100559.28;2080886;28;20488;-71
2022/09/11 00:11:17;;;;;;;18.77;8.65;;;;;;;14.26;93.60;100565.47;2080718;28;20033;-71
2022/09/11 00:12:22;;;;;;;18.48;8.18;;;;;;;14.26;93.58;100561.97;2080046;28;20033;-71
2022/09/11 00:13:25;;;;;;;15.25;7.90;;;;;;;14.27;93.74;100560.88;2080156;28;20496;-72
2022/09/11 00:14:29;;;;;;;13.60;7.22;;;;;;;14.25;93.32;100563.91;2079634;28;20042;-72
2022/09/11 00:15:38;;;;;;;18.70;7.45;;;;;;;14.28;93.29;100557.06;2072654;28;20113;-72
2022/09/11 00:16:45;;;;;;;16.13;7.32;;;;;;;14.27;93.52;100558.16;2080099;28;20385;-72
2022/09/11 00:17:50;;;;;;;13.98;6.95;;;;;;;14.29;93.22;100556.78;2071699;28;20054;-71
2022/09/11 00:18:55;;;;;;;20.45;8.63;;;;;;;14.30;93.30;100554.84;2071790;28;20050;-72
2022/09/11 00:20:03;;;;;;;15.88;7.30;;;;;;;14.30;93.33;100554.84;2072493;28;20379;-71
2022/09/11 00:21:07;;;;;;;13.73;7.57;;;;;;;14.31;93.63;100559.97;2072480;28;20041;-71
2022/09/11 00:22:12;;;;;;;14.55;8.20;;;;;;;14.32;93.69;100552.66;2071969;28;20052;-72
2022/09/11 00:23:16;;;;;;;15.10;7.95;;;;;;;14.33;93.60;100554.25;2055702;28;20406;-71
2022/09/11 00:24:25;;;;;;;17.90;8.25;;;;;;;14.33;93.45;100548.84;2069060;28;20407;-71
2022/09/11 00:25:31;;;;;;;16.95;7.72;;;;;;;14.34;93.74;100556.66;2072797;28;20371;-71
2022/09/11 00:26:37;;;;;;;16.90;7.70;;;;;;;14.34;93.70;100555.84;2080830;28;20057;-71
2022/09/11 00:27:40;;;;;;;14.98;8.00;;;;;;;14.34;93.54;100553.13;2079965;28;20039;-72
2022/09/11 00:28:51;;;;;;;17.45;8.65;;;;;;;14.33;93.67;100554.25;2064524;28;20046;-71
2022/09/11 00:29:54;;;;;;;14.13;8.13;;;;;;;14.31;93.47;100546.47;2065308;28;20478;-71
2022/09/11 00:31:17;;;;;;;17.15;7.85;;;;;;;14.33;93.60;100546.94;2073063;28;20079;-71
2022/09/11 00:32:23;;;;;;;14.27;7.68;;;;;;;14.33;93.72;100544.22;2071638;28;20042;-70
2022/09/11 00:33:26;;;;;;;13.80;7.72;;;;;;;14.34;93.95;100543.16;2063911;28;20034;-71
2022/09/11 00:34:30;;;;;;;17.90;8.00;;;;;;;14.33;93.66;100538.81;2063867;28;20042;-72
2022/09/11 00:35:35;;;;;;;14.85;7.95;;;;;;;14.33;93.83;100543.44;2055799;28;20430;-72
2022/09/11 00:36:40;;;;;;;18.67;8.32;;;;;;;14.33;93.54;100543.44;2055982;28;20043;-71
2022/09/11 00:37:42;;;;;;;18.55;8.13;;;;;;;14.32;93.67;100542.63;2047886;28;20764;-71
2022/09/11 00:38:46;;;;;;;16.77;8.35;;;;;;;14.33;93.70;100548.84;2047602;28;20471;-71
2022/09/11 00:39:49;;;;;;;16.08;9.10;;;;;;;14.31;93.60;100541.06;2071368;28;20034;-71
2022/09/11 00:41:00;;;;;;;17.65;8.35;;;;;;;14.33;93.44;100541.53;2071729;28;20038;-71
2022/09/11 00:42:05;;;;;;;;;;;;;;;14.32;93.50;100553.47;2072497;28;20057;-70
2022/09/11 00:43:09;;;;;;;14.38;7.82;;;;;;;14.34;93.70;100547.72;2073351;28;19920;-71
2022/09/11 00:44:11;;;;;;;14.48;7.82;;;;;;;14.35;93.81;100543.94;2072003;28;20041;-71
2022/09/11 00:45:24;;;;;;;18.33;8.00;;;;;;;14.34;93.80;100545.03;2071529;28;20045;-72
2022/09/11 00:46:30;;;;;;;14.95;7.85;;;;;;;14.35;93.67;100541.25;2065410;28;20038;-72
2022/09/11 00:47:34;;;;;;;16.08;8.05;;;;;;;14.34;93.99;100539.63;2056056;28;20043;-72
2022/09/11 00:48:39;;;;;;;15.98;8.02;;;;;;;14.35;93.52;100541.25;2072191;28;20049;-72
2022/09/11 00:49:48;;;;;;;15.07;7.70;;;;;;;14.36;93.56;100542.81;2063593;28;20486;-71
2022/09/11 00:50:53;;;;;;;16.13;8.23;;;;;;;14.37;93.94;100541.72;2065361;28;20046;-71
2022/09/11 00:52:09;;;;;;;16.02;8.18;;;;;;;14.38;93.88;100540.63;2080487;28;20058;-72
2022/09/11 00:53:19;;;;;;;15.00;7.53;;;;;;;14.36;93.69;100535.50;2072376;28;20110;-72
2022/09/11 00:54:31;;;;;;;17.63;7.72;;;;;;;14.36;93.70;100537.41;2066131;28;20038;-72
2022/09/11 00:55:40;;;;;;;14.63;8.20;;;;;;;14.37;93.91;100531.72;2073327;28;21143;-71
2022/09/11 00:56:44;;;;;;;17.27;8.15;;;;;;;14.39;93.78;100539.50;2071549;28;20506;-72
2022/09/11 00:57:56;;;;;;;17.10;7.80;;;;;;;14.40;93.66;100537.59;2063799;28;20046;-71
2022/09/11 00:59:00;;;;;;;16.02;8.18;;;;;;;14.41;93.83;100539.19;2063759;28;20061;-71
2022/09/11 01:00:05;;;;;;;15.82;7.80;;;;;;;14.39;93.90;100531.41;2063659;28;20042;-72
2022/09/11 01:01:10;;;;;;;19.27;8.73;;;;;;;14.39;93.64;100534.09;2056167;28;20069;-71
2022/09/11 01:02:18;;;;;;;17.90;8.70;;;;;;;14.41;93.63;100528.38;2048885;28;20046;-72
2022/09/11 01:03:22;;;;;;;14.95;8.05;;;;;;;14.41;93.60;100523.78;2065024;28;20042;-70
2022/09/11 01:04:28;;;;;;;17.27;8.82;;;;;;;14.43;93.83;100537.00;2071449;28;20044;-72
2022/09/11 01:05:33;;;;;;;16.88;8.52;;;;;;;14.41;93.47;100533.78;2066160;28;20054;-72
2022/09/11 01:06:40;;;;;;;15.68;8.32;;;;;;;14.40;93.26;100522.16;2072229;28;20037;-72
2022/09/11 01:07:48;;;;;;;18.75;8.38;;;;;;;14.39;93.17;100526.00;2070788;28;20046;-72
2022/09/11 01:08:52;;;;;;;17.75;8.57;;;;;;;14.40;93.34;100522.16;2064433;28;20433;-72
2022/09/11 01:09:54;;;;;;;17.08;8.73;;;;;;;14.39;93.16;100520.59;2063681;28;20046;-72
2022/09/11 01:11:14;;;;;;;13.77;8.27;;;;;;;14.40;93.57;100524.88;2055457;28;20530;-72
2022/09/11 01:12:41;;;;;;;17.20;8.27;;;;;;;14.40;93.15;100524.88;2074028;28;20544;-71
2022/09/11 01:13:56;;;;;;;14.43;8.30;;;;;;;14.40;93.50;100524.88;2054688;28;20087;-72
2022/09/11 01:15:21;;;;;;;15.25;8.02;;;;;;;14.41;93.02;100526.50;2072882;28;20057;-72
2022/09/11 01:16:40;;;;;;;15.23;8.10;;;;;;;14.41;93.52;100523.78;2079612;28;20061;-72
2022/09/11 01:18:13;;;;;;;17.25;8.63;;;;;;;14.40;93.40;100522.16;2073818;28;20045;-71
2022/09/11 01:19:45;;;;;;;17.48;8.15;;;;;;;14.42;93.43;100525.38;2076128;28;20041;-71
2022/09/11 01:21:16;;;;;;;16.80;7.63;;;;;;;14.40;93.50;100524.88;2062016;28;20055;-71
2022/09/11 01:22:41;;;;;;;17.95;7.85;;;;;;;14.41;93.26;100526.50;2073331;28;20037;-71
2022/09/11 01:23:59;;;;;;;13.23;7.60;;;;;;;14.42;93.19;100524.59;2071384;28;20478;-71
2022/09/11 01:25:29;;;;;;;16.30;8.32;;;;;;;14.41;93.05;100520.25;2067993;28;20054;-71
2022/09/11 01:27:00;;;;;;;15.32;8.07;;;;;;;14.41;93.52;100521.09;2079958;28;20476;-71
2022/09/11 01:28:16;;;;;;;14.55;7.57;;;;;;;14.39;93.22;100520.59;2079607;28;20038;-71
2022/09/11 01:29:42;;;;;;;15.20;8.30;;;;;;;14.39;93.34;100512.47;2065201;28;20429;-71
2022/09/11 01:30:53;;;;;;;15.25;8.10;;;;;;;14.37;93.27;100514.66;2066417;28;20052;-72
2022/09/11 01:32:35;;;;;;;20.25;8.48;;;;;;;14.37;93.37;100512.78;2064806;28;20049;-72
2022/09/11 01:33:47;;;;;;;17.40;8.48;;;;;;;14.35;93.12;100512.28;2062541;28;20429;-72
2022/09/11 01:35:03;;;;;;;17.30;7.60;;;;;;;14.36;93.23;100515.78;2066416;28;20046;-72
2022/09/11 01:36:06;;;;;;;14.02;7.88;;;;;;;14.35;93.08;100514.97;2073269;28;20045;-71
2022/09/11 01:37:27;;;;;;;17.42;8.20;;;;;;;14.36;93.00;100513.06;2063824;28;20034;-72
2022/09/11 01:38:42;;;;;;;15.65;7.80;;;;;;;14.33;93.10;100513.69;2065387;28;20057;-71
2022/09/11 01:40:00;;;;;;;17.38;8.60;;;;;;;14.34;92.91;100512.56;2065024;28;20042;-72
2022/09/11 01:41:08;;;;;;;17.25;7.95;;;;;;;14.33;92.97;100516.38;2065454;28;20046;-72
2022/09/11 01:42:13;;;;;;;17.52;7.72;;;;;;;14.33;92.90;100509.06;2056210;28;20065;-72
2022/09/11 01:43:21;;;;;;;15.65;8.25;;;;;;;14.32;93.02;100515.59;2060963;28;20046;-72
2022/09/11 01:44:42;;;;;;;18.02;8.30;;;;;;;14.29;93.04;100507.28;2070867;28;20049;-71
2022/09/11 01:45:47;;;;;;;16.65;8.40;;;;;;;14.31;93.14;100510.47;2049914;28;20058;-72
2022/09/11 01:46:53;;;;;;;15.20;7.78;;;;;;;14.31;93.17;100515.88;2056739;28;20195;-71
2022/09/11 01:48:01;;;;;;;17.80;8.45;;;;;;;14.31;93.14;100505.06;2071136;28;20038;-71
2022/09/11 01:49:07;;;;;;;15.70;8.15;;;;;;;14.32;92.86;100512.09;2071469;28;20505;-71
2022/09/11 01:50:17;;;;;;;17.13;8.73;;;;;;;14.33;93.26;100513.69;2067010;28;20038;-71
2022/09/11 01:51:27;;;;;;;18.27;8.25;;;;;;;14.31;92.88;100510.47;2049121;28;20793;-72
2022/09/11 01:52:43;;;;;;;16.95;8.13;;;;;;;14.31;92.88;100508.59;2059210;28;20046;-72
2022/09/11 01:53:54;;;;;;;16.77;8.80;;;;;;;14.29;93.18;100510.00;2073959;28;20081;-71
2022/09/11 01:55:03;;;;;;;19.63;8.35;;;;;;;14.30;93.02;100506.19;2072160;28;20627;-71
2022/09/11 01:56:18;;;;;;;19.35;8.55;;;;;;;14.32;93.16;100512.09;2080838;28;20049;-72
2022/09/11 01:57:43;;;;;;;18.50;8.32;;;;;;;14.30;92.88;100517.00;2071299;28;20065;-71
2022/09/11 01:58:48;;;;;;;15.73;8.30;;;;;;;14.31;92.80;100514.00;2071972;28;20433;-72
2022/09/11 01:59:59;;;;;;;17.48;8.20;;;;;;;14.29;92.86;100515.41;2063896;28;20038;-72
2022/09/11 02:01:28;;;;;;;16.17;7.95;;;;;;;14.30;93.06;100517.00;2064904;28;20038;-70
2022/09/11 02:02:37;;;;;;;19.75;8.98;;;;;;;14.31;93.16;100510.47;2055900;28;20498;-71
2022/09/11 02:03:52;;;;;;;16.13;8.25;;;;;;;14.30;92.98;100511.59;2058334;28;20046;-70
2022/09/11 02:05:11;;;;;;;14.00;7.97;;;;;;;14.30;93.02;100517.00;2064654;28;20049;-71
2022/09/11 02:06:23;;;;;;;18.63;8.02;;;;;;;14.29;93.26;100510.00;2056873;28;20082;-71
2022/09/11 02:07:31;;;;;;;15.70;8.48;;;;;;;14.30;93.15;100511.59;2056261;28;20038;-72
2022/09/11 02:09:02;;;;;;;16.55;8.27;;;;;;;14.31;93.24;100513.19;2060145;28;20038;-71
2022/09/11 02:10:13;;;;;;;15.13;7.70;;;;;;;14.31;93.23;100511.28;2070888;28;20041;-71
2022/09/11 02:11:19;;;;;;;14.27;7.55;;;;;;;14.32;92.89;100509.38;2072244;28;20064;-71
2022/09/11 02:12:27;;;;;;;15.73;8.50;;;;;;;14.31;93.33;100513.19;2071323;28;20037;-71
2022/09/11 02:13:49;;;;;;;16.92;7.43;;;;;;;14.30;93.23;100506.19;2072696;28;20042;-71
2022/09/11 02:14:54;;;;;;;13.90;7.57;;;;;;;14.30;92.82;100508.88;2058087;28;20042;-71
2022/09/11 02:16:13;;;;;;;18.50;6.95;;;;;;;14.29;93.04;100513.50;2056318;28;20038;-71
2022/09/11 02:17:20;;;;;;;13.77;7.20;;;;;;;14.30;92.81;100517.00;2053977;28;20034;-71
2022/09/11 02:18:40;;;;;;;15.75;7.32;;;;;;;14.31;93.22;100515.88;2056104;28;20058;-71
2022/09/11 02:19:43;;;;;;;16.10;7.30;;;;;;;14.30;92.90;100517.00;2066254;28;20042;-71
2022/09/11 02:20:50;;;;;;;19.48;7.47;;;;;;;14.29;92.96;100512.69;2072949;28;20065;-71
2022/09/11 02:21:58;;;;;;;13.05;7.20;;;;;;;14.29;92.80;100504.59;2073520;28;20057;-71
2022/09/11 02:23:00;;;;;;;12.20;6.50;;;;;;;14.29;92.78;100510.00;2072108;28;20048;-71
2022/09/11 02:24:02;;;;;;;14.10;7.40;;;;;;;14.28;92.83;100508.38;2056833;28;20047;-71
2022/09/11 02:25:09;;;;;;;14.82;7.45;;;;;;;14.29;92.73;100513.50;2064836;28;20358;-71
2022/09/11 02:26:17;;;;;;;19.23;8.25;;;;;;;14.29;92.76;100510.00;2064583;28;20038;-71
2022/09/11 02:27:26;;;;;;;15.50;7.35;;;;;;;14.31;92.87;100510.47;2057679;28;20047;-72
2022/09/11 02:28:28;;;;;;;13.55;6.95;;;;;;;14.31;92.82;100513.19;2065330;28;20394;-72
2022/09/11 02:29:33;;;;;;;12.90;7.00;;;;;;;14.28;93.03;100511.91;2065033;28;20049;-70
2022/09/11 02:30:35;;;;;;;12.20;7.03;;;;;;;14.28;92.70;100511.06;2081315;28;20053;-71
2022/09/11 02:31:37;;;;;;;16.70;6.88;;;;;;;14.29;92.78;100512.69;2072352;28;20137;-71
2022/09/11 02:32:42;;;;;;;15.05;7.18;;;;;;;14.29;92.92;100512.69;2062443;28;20034;-70
2022/09/11 02:33:50;;;;;;;13.35;7.38;;;;;;;14.28;92.91;100511.91;2066183;28;20678;-72
2022/09/11 02:34:58;;;;;;;11.95;6.90;;;;;;;14.25;92.79;100517.09;2072971;28;20060;-72
2022/09/11 02:36:30;;;;;;;16.17;7.20;;;;;;;14.23;92.97;100509.31;2072590;28;20037;-71
2022/09/11 02:37:57;;;;;;;13.95;7.40;;;;;;;14.24;92.94;100512.81;2077608;28;20053;-71
2022/09/11 02:39:09;;;;;;;14.13;7.43;;;;;;;14.25;92.52;100514.38;2064260;28;20042;-71
2022/09/11 02:40:18;;;;;;;15.40;7.43;;;;;;;14.24;92.62;100512.81;2068780;28;20344;-71
2022/09/11 02:41:31;;;;;;;15.77;7.03;;;;;;;14.24;92.52;100508.19;2080747;28;20079;-71
2022/09/11 02:42:54;;;;;;;15.85;7.15;;;;;;;14.24;92.74;100507.38;2072295;28;20050;-71
2022/09/11 02:44:32;;;;;;;14.65;7.57;;;;;;;14.24;92.56;100507.38;2046417;28;20050;-71
2022/09/11 02:45:48;;;;;;;21.90;7.55;;;;;;;14.24;92.73;100507.38;2058278;28;20034;-71
2022/09/11 02:47:20;;;;;;;13.75;7.32;;;;;;;14.22;92.89;100506.88;2074943;28;20041;-71
2022/09/11 02:48:24;;;;;;;15.27;8.20;;;;;;;14.20;92.68;100507.19;2071826;28;20508;-71
2022/09/11 02:49:31;;;;;;;17.70;7.20;;;;;;;14.21;92.81;100513.41;2065344;28;20054;-71
2022/09/11 02:50:52;;;;;;;16.38;7.25;;;;;;;14.19;92.84;100507.53;2074140;28;20038;-71
2022/09/11 02:52:10;;;;;;;19.13;7.68;;;;;;;14.12;92.73;100508.72;2072637;28;20056;-73
2022/09/11 02:53:46;;;;;;;14.30;7.47;;;;;;;14.14;92.69;100508.41;2050357;28;20050;-71
2022/09/11 02:55:06;;;;;;;17.98;7.35;;;;;;;14.12;93.05;100510.59;2052597;28;20116;-72
2022/09/11 02:56:17;;;;;;;14.88;7.50;;;;;;;14.14;92.76;100506.50;2069031;28;20050;-71
2022/09/11 02:57:43;;;;;;;14.75;7.28;;;;;;;14.17;92.85;100513.22;2072157;28;20425;-71
2022/09/11 02:58:57;;;;;;;19.98;7.93;;;;;;;14.14;92.70;100513.81;2075667;28;20497;-70
2022/09/11 03:00:06;;;;;;;19.38;8.02;;;;;;;14.14;92.86;100513.81;2072404;28;20473;-71
2022/09/11 03:01:13;;;;;;;14.07;8.32;;;;;;;14.15;92.80;100518.13;2080566;28;20037;-72
2022/09/11 03:02:22;;;;;;;19.73;8.10;;;;;;;14.16;92.85;100521.66;2073717;28;20050;-70
2022/09/11 03:03:30;;;;;;;16.60;8.43;;;;;;;14.15;93.06;100515.41;2080584;28;20041;-71
2022/09/11 03:04:36;;;;;;;16.27;8.38;;;;;;;14.16;92.79;100516.25;2065308;28;20054;-72
2022/09/11 03:05:39;;;;;;;16.77;7.95;;;;;;;14.12;92.72;100516.84;2064230;28;20042;-72
2022/09/11 03:06:42;;;;;;;16.55;7.40;;;;;;;14.06;93.10;100523.47;2072682;28;20045;-72
2022/09/11 03:07:45;;;;;;;15.30;8.30;;;;;;;14.04;93.00;100514.03;2072334;28;20038;-72
2022/09/11 03:08:50;;;;;;;17.15;8.13;;;;;;;14.02;92.92;100517.03;2060152;28;20069;-72
2022/09/11 03:09:59;;;;;;;15.27;8.15;;;;;;;14.03;92.88;100521.34;2072402;28;20053;-71
2022/09/11 03:11:04;;;;;;;15.35;7.80;;;;;;;14.02;93.03;100519.75;2064268;28;20046;-71
2022/09/11 03:12:07;;;;;;;13.63;7.25;;;;;;;14.04;93.22;100517.53;2064671;28;20038;-72
2022/09/11 03:13:16;;;;;;;15.38;7.53;;;;;;;14.06;93.06;100522.63;2077652;28;20488;-72
2022/09/11 03:14:23;;;;;;;12.90;7.63;;;;;;;14.03;93.06;100515.94;2074626;28;20393;-72
2022/09/11 03:15:28;;;;;;;15.38;7.63;;;;;;;14.05;92.97;100516.44;2072256;28;20520;-72
2022/09/11 03:16:35;;;;;;;13.57;7.43;;;;;;;14.07;92.80;100519.66;2073078;28;20053;-72
2022/09/11 03:17:42;;;;;;;15.18;7.65;;;;;;;14.07;92.72;100518.84;2064827;28;20045;-71
2022/09/11 03:18:44;;;;;;;19.40;6.97;;;;;;;14.01;92.94;100512.75;2064060;28;20046;-72
2022/09/11 03:19:49;;;;;;;12.85;7.10;;;;;;;14.04;92.90;100517.53;2057356;28;20043;-72
2022/09/11 03:20:53;;;;;;;14.20;7.57;;;;;;;14.06;92.84;100518.06;2056874;28;20050;-73
2022/09/11 03:21:55;;;;;;;16.13;6.93;;;;;;;14.02;92.84;100517.03;2064118;28;20426;-73
2022/09/11 03:22:57;;;;;;;16.38;7.65;;;;;;;14.03;92.63;100520.53;2064251;28;20057;-73
2022/09/11 03:24:12;;;;;;;13.43;6.30;;;;;;;14.05;92.44;100521.84;2060069;28;20050;-73
2022/09/11 03:25:17;;;;;;;14.00;6.57;;;;;;;14.08;92.43;100517.72;2072154;28;20053;-73
2022/09/11 03:26:24;;;;;;;14.88;6.65;;;;;;;14.08;92.62;100521.22;2072730;28;20516;-73
2022/09/11 03:27:27;;;;;;;12.48;5.70;;;;;;;14.06;92.09;100522.63;2072353;28;20505;-73
2022/09/11 03:28:38;;;;;;;15.32;6.35;;;;;;;14.05;91.80;100521.84;2056004;28;20046;-74
2022/09/11 03:29:45;;;;;;;11.82;6.07;;;;;;;14.06;91.83;100523.47;2044061;28;20042;-73
2022/09/11 03:30:53;;;;;;;10.57;5.75;;;;;;;14.08;91.71;100525.84;2065194;28;20050;-73
2022/09/11 03:32:06;;;;;;;13.93;6.10;;;;;;;14.07;91.34;100525.06;2079030;28;20049;-73
2022/09/11 03:33:10;;;;;;;9.77;5.97;;;;;;;14.04;91.31;100522.94;2065468;28;20050;-71
2022/09/11 03:34:13;;;;;;;12.00;4.90;;;;;;;14.01;91.08;100520.06;2056050;28;20043;-70
2022/09/11 03:35:17;;;;;;;10.27;4.85;;;;;;;14.01;90.78;100525.47;2072596;28;20048;-70
2022/09/11 03:36:21;;;;;;;9.55;4.90;;;;;;;14.01;90.36;100522.75;2079447;28;20053;-70
2022/09/11 03:37:25;;;;;;;8.98;4.45;;;;;;;14.01;89.75;100525.47;2056174;28;20521;-71
2022/09/11 03:38:29;;;;;;;9.35;5.22;;;;;;;14.01;89.66;100534.38;2064906;28;20034;-72
2022/09/11 03:39:31;;;;;;;9.98;4.70;;;;;;;13.95;89.60;100532.06;2072459;28;20041;-71
2022/09/11 03:40:39;;;;;;;10.15;4.68;;;;;;;13.95;89.16;100519.34;2064253;28;20042;-70
2022/09/11 03:41:44;;;;;;;7.68;3.90;;;;;;;13.96;88.67;100529.06;2066313;28;20046;-73
2022/09/11 03:42:47;;;;;;;8.38;4.32;;;;;;;14.00;89.01;100519.25;2080048;28;20040;-70
2022/09/11 03:43:49;;;;;;;7.70;4.63;;;;;;;13.98;88.60;100524.16;2063937;28;20038;-70
2022/09/11 03:44:53;;;;;;;5.78;3.83;;;;;;;13.99;88.30;100527.66;2064154;28;20442;-70
2022/09/11 03:45:59;;;;;;;8.05;4.35;;;;;;;13.98;88.13;100536.88;2064890;28;20034;-70
2022/09/11 03:47:08;;;;;;;6.40;4.18;;;;;;;13.97;88.06;100540.69;2065387;28;20046;-70
2022/09/11 03:48:18;;;;;;;7.78;4.13;;;;;;;13.98;87.96;100537.69;2065366;28;20494;-70
2022/09/11 03:49:25;;;;;;;6.05;4.05;;;;;;;13.93;87.64;100537.75;2065305;28;20041;-72
2022/09/11 03:50:32;;;;;;;9.02;4.35;;;;;;;13.96;87.21;100539.06;2057268;28;20046;-70
2022/09/11 03:51:40;;;;;;;9.82;4.55;;;;;;;13.95;87.21;100540.19;2058677;28;20054;-70
2022/09/11 03:52:48;;;;;;;9.18;4.68;;;;;;;13.91;86.76;100532.69;2065646;28;20049;-71
2022/09/11 03:53:52;;;;;;;7.35;4.35;;;;;;;13.91;86.76;100538.09;2056713;28;20482;-73
2022/09/11 03:55:00;;;;;;;12.88;4.57;;;;;;;13.95;86.94;100540.97;2060705;28;20045;-70
2022/09/11 03:56:05;;;;;;;9.80;4.85;;;;;;;13.96;86.66;100545.28;2072762;28;20053;-70
2022/09/11 03:57:13;;;;;;;10.25;4.35;;;;;;;13.97;86.68;100540.69;2065037;28;20057;-70
2022/09/11 03:58:20;;;;;;;8.43;4.60;;;;;;;13.94;86.43;100539.38;2063833;28;20049;-71
2022/09/11 03:59:24;;;;;;;7.30;3.45;;;;;;;13.92;86.61;100533.47;2063923;28;20418;-70
2022/09/11 04:00:26;;;;;;;10.48;4.60;;;;;;;13.95;86.20;100538.28;2056184;28;20090;-70
2022/09/11 04:01:34;;;;;;;7.30;4.05;;;;;;;13.91;85.78;100542.69;2056272;28;20059;-70
2022/09/11 04:02:43;;;;;;;8.38;4.20;;;;;;;13.94;85.69;100535.88;2058607;28;20065;-71
2022/09/11 04:03:47;;;;;;;11.50;4.65;;;;;;;13.88;85.73;100537.88;2073071;28;20446;-69
2022/09/11 04:04:58;;;;;;;8.63;4.28;;;;;;;13.88;85.31;100540.59;2073214;28;20104;-73
2022/09/11 04:06:03;;;;;;;10.20;4.53;;;;;;;13.89;85.21;100544.88;2071861;28;20053;-73
2022/09/11 04:07:11;;;;;;;13.40;4.65;;;;;;;13.86;85.47;100540.06;2071982;28;20042;-70
2022/09/11 04:08:15;;;;;;;8.85;4.90;;;;;;;13.84;84.93;100537.69;2064664;28;20046;-72
2022/09/11 04:09:20;;;;;;;9.50;4.75;;;;;;;13.75;84.93;100544.09;2068918;28;20409;-72
2022/09/11 04:10:30;;;;;;;9.23;4.57;;;;;;;13.67;84.73;100542.88;2065186;28;20065;-72
2022/09/11 04:11:37;;;;;;;8.63;4.50;;;;;;;13.68;84.36;100539.88;2065006;28;20039;-71
2022/09/11 04:12:43;;;;;;;8.38;4.32;;;;;;;13.72;84.75;100536.59;2056909;28;20058;-71
2022/09/11 04:13:47;;;;;;;9.07;4.47;;;;;;;13.76;84.72;100540.28;2064801;28;20058;-70
2022/09/11 04:14:55;;;;;;;9.10;4.47;;;;;;;13.78;84.52;100538.09;2071769;28;20056;-71
2022/09/11 04:16:11;;;;;;;9.80;4.80;;;;;;;13.81;84.50;100537.50;2063845;28;20460;-72
2022/09/11 04:17:21;;;;;;;8.38;4.55;;;;;;;13.83;84.66;100543.38;2065798;28;20054;-74
2022/09/11 04:18:31;;;;;;;9.27;4.65;;;;;;;13.83;84.49;100541.47;2067296;28;20073;-72
2022/09/11 04:19:34;;;;;;;8.05;4.30;;;;;;;13.86;84.87;100540.06;2064342;28;20396;-74
2022/09/11 04:20:42;;;;;;;7.07;4.53;;;;;;;13.87;84.83;100544.38;2056527;28;20487;-72
2022/09/11 04:21:47;;;;;;;8.10;4.32;;;;;;;13.85;84.48;100541.19;2065007;28;20058;-71
2022/09/11 04:22:51;;;;;;;7.20;4.10;;;;;;;13.83;84.58;100546.09;2062967;28;20514;-70
2022/09/11 04:23:59;;;;;;;7.90;4.72;;;;;;;13.74;83.88;100540.56;2061833;28;20058;-70
2022/09/11 04:25:06;;;;;;;11.48;5.25;;;;;;;13.74;84.23;100545.19;2064377;28;20058;-70
2022/09/11 04:26:17;;;;;;;11.48;4.85;;;;;;;13.74;83.82;100542.47;2063011;28;20076;-71
2022/09/11 04:27:26;;;;;;;9.95;4.82;;;;;;;13.64;84.08;100538.88;2055864;28;20042;-74
2022/09/11 04:28:29;;;;;;;9.10;4.68;;;;;;;13.70;83.78;100549.59;2048662;28;20039;-73
2022/09/11 04:29:35;;;;;;;10.10;5.03;;;;;;;13.71;83.69;100543.06;2064017;28;20049;-73
2022/09/11 04:30:37;;;;;;;10.27;4.57;;;;;;;13.67;83.58;100545.56;2062300;28;20038;-71
2022/09/11 04:31:40;;;;;;;10.93;4.75;;;;;;;13.57;83.39;100543.88;2045399;28;20047;-70
2022/09/11 04:32:46;;;;;;;8.80;4.30;;;;;;;13.54;83.46;100543.66;2064161;28;20053;-71
2022/09/11 04:33:53;;;;;;;11.05;5.10;;;;;;;13.54;83.20;100538.25;2078334;28;20049;-70
2022/09/11 04:34:58;;;;;;;9.13;4.47;;;;;;;13.54;83.30;100543.66;2070806;28;20042;-71
2022/09/11 04:36:13;;;;;;;8.60;4.25;;;;;;;13.58;83.26;100542.75;2071508;28;20057;-72
2022/09/11 04:37:15;;;;;;;9.65;4.95;;;;;;;13.62;83.34;100540.28;2070487;28;20049;-73
2022/09/11 04:38:21;;;;;;;8.23;4.90;;;;;;;13.63;82.96;100545.38;2054710;28;20080;-73
2022/09/11 04:39:24;;;;;;;8.80;4.70;;;;;;;13.66;83.09;100543.97;2055808;28;20045;-74
2022/09/11 04:40:30;;;;;;;9.07;5.22;;;;;;;13.64;83.07;100549.66;2079094;28;20412;-73
2022/09/11 04:41:33;;;;;;;6.35;4.05;;;;;;;13.63;83.31;100545.38;2078581;28;20057;-68
2022/09/11 04:42:37;;;;;;;11.52;4.93;;;;;;;13.70;83.70;100541.47;2077155;28;20102;-72
2022/09/11 04:43:43;;;;;;;8.18;4.78;;;;;;;13.73;83.62;100549.00;2078908;28;20061;-72
2022/09/11 04:44:53;;;;;;;7.75;4.25;;;;;;;13.70;83.47;100542.28;2078186;28;20507;-73
2022/09/11 04:46:12;;;;;;;9.10;4.95;;;;;;;13.73;83.57;100540.88;2079017;28;20041;-72
2022/09/11 04:47:15;;;;;;;15.80;5.07;;;;;;;13.75;83.62;100544.91;2071449;28;20052;-72
2022/09/11 04:48:24;;;;;;;8.13;4.22;;;;;;;13.77;83.20;100537.25;2062774;28;20636;-72
2022/09/11 04:49:26;;;;;;;7.85;4.30;;;;;;;13.76;83.31;100546.47;2061745;28;20034;-72
2022/09/11 04:50:30;;;;;;;8.80;4.38;;;;;;;13.78;82.99;100543.50;2069940;28;20041;-72
2022/09/11 04:52:01;;;;;;;9.93;4.45;;;;;;;13.79;82.72;100547.78;2074295;28;20034;-71
2022/09/11 04:53:06;;;;;;;9.98;4.25;;;;;;;13.77;82.59;100541.88;2072054;28;20038;-72
2022/09/11 04:54:15;;;;;;;11.55;4.30;;;;;;;13.77;82.36;100537.25;2079305;28;20088;-72
2022/09/11 04:55:18;;;;;;;10.80;4.00;;;;;;;13.74;81.80;100545.19;2071005;28;20037;-71
2022/09/11 04:56:27;;;;;;;10.32;4.28;;;;;;;13.73;81.67;100540.88;2063892;28;20145;-71
2022/09/11 04:57:30;;;;;;;11.05;3.97;;;;;;;13.76;81.43;100545.69;2062849;28;20034;-72
2022/09/11 04:58:40;;;;;;;10.02;3.90;;;;;;;13.76;81.25;100543.00;2064705;28;20244;-72
2022/09/11 04:59:45;;;;;;;7.38;3.72;;;;;;;13.75;80.98;100546.81;2078688;28;20045;-72
2022/09/11 05:00:49;;;;;;;12.93;4.82;;;;;;;13.77;80.97;100542.66;2071881;28;20100;-72
2022/09/11 05:01:52;;;;;;;11.93;4.28;;;;;;;13.79;80.81;100545.88;2062832;28;20046;-72
2022/09/11 05:02:57;;;;;;;7.70;4.03;;;;;;;13.80;81.31;100542.06;2055901;28;20490;-72
2022/09/11 05:04:05;;;;;;;10.93;4.18;;;;;;;13.82;81.20;100547.19;2063591;28;20042;-72
2022/09/11 05:05:11;;;;;;;10.27;4.18;;;;;;;13.84;80.79;100544.97;2054294;28;20039;-72
2022/09/11 05:06:15;;;;;;;12.85;4.10;;;;;;;13.82;81.18;100544.50;2056229;28;20058;-71
2022/09/11 05:07:24;;;;;;;9.80;4.07;;;;;;;13.83;81.13;100548.78;2069810;28;20429;-73
2022/09/11 05:08:28;;;;;;;13.32;4.22;;;;;;;13.85;81.12;100543.88;2068090;28;20045;-73
2022/09/11 05:09:33;;;;;;;9.00;4.05;;;;;;;13.83;80.98;100541.47;2077720;28;20048;-73
2022/09/11 05:10:41;;;;;;;9.38;4.05;;;;;;;13.84;80.88;100547.66;2078493;28;20842;-73
2022/09/11 05:11:45;;;;;;;9.32;4.43;;;;;;;13.86;81.02;100556.28;2078502;28;20056;-73
2022/09/11 05:12:50;;;;;;;12.60;4.32;;;;;;;13.85;80.85;100554.69;2078203;28;20045;-73
2022/09/11 05:14:00;;;;;;;10.93;4.13;;;;;;;13.84;80.96;100547.66;2071190;28;20034;-73
2022/09/11 05:15:11;;;;;;;10.80;4.15;;;;;;;13.82;81.09;100549.91;2072422;28;20080;-73
2022/09/11 05:16:18;;;;;;;9.50;4.05;;;;;;;13.82;81.02;100545.28;2071411;28;20050;-72
2022/09/11 05:17:28;;;;;;;12.98;3.90;;;;;;;13.84;80.70;100544.97;2063455;28;20046;-71
2022/09/11 05:18:35;;;;;;;9.30;4.00;;;;;;;13.84;80.95;100550.38;2064886;28;20038;-73